Time;durP1;ratioP1;P1;durP2;ratioP2;P2;SDS_P1;SDS_P2;PMS_P1;PMS_P2;Temp;Humidity;BMP_temperature;BMP_pressure;BME280_temperature;BME280_humidity;BME280_pressure;Samples;Min_cycle;Max_cycle;Signal;HPM_P1;HPM_P2
2022/01/15 00:01:40;;;;;;;21.48;11.55;;;;;;;7.31;79.88;101467.78;5091878;28;20094;-63
2022/01/15 00:04:07;;;;;;;28.63;12.48;;;;;;;7.32;80.10;101460.78;5091620;28;20484;-62
2022/01/15 00:06:34;;;;;;;77.90;14.77;;;;;;;7.30;79.79;101474.75;5090396;28;20665;-63
2022/01/15 00:09:01;;;;;;;53.13;11.85;;;;;;;7.31;79.78;101465.16;5090504;28;20043;-62
2022/01/15 00:11:27;;;;;;;70.88;12.68;;;;;;;7.29;79.57;101453.84;5091821;28;20044;-62
2022/01/15 00:14:12;;;;;;;66.45;13.75;;;;;;;7.29;79.37;101443.38;5091594;28;20097;-64
2022/01/15 00:16:55;;;;;;;65.00;13.13;;;;;;;7.27;79.35;101450.38;5091377;28;20044;-62
2022/01/15 00:19:34;;;;;;;;;;;;;;;7.26;78.62;101452.13;5092019;28;20044;-63
2022/01/15 00:22:00;;;;;;;59.42;12.50;;;;;;;7.29;79.30;101452.06;5091719;28;19924;-64
2022/01/15 00:24:27;;;;;;;105.20;15.07;;;;;;;7.25;79.17;101458.25;5090597;28;20044;-62
2022/01/15 00:26:53;;;;;;;134.68;15.63;;;;;;;7.23;79.36;101453.94;5091382;28;20106;-62
2022/01/15 00:29:20;;;;;;;56.83;13.35;;;;;;;7.20;79.58;101446.13;5091219;28;20044;-64
2022/01/15 00:31:46;;;;;;;61.05;12.95;;;;;;;7.17;79.45;101453.16;5091234;28;20557;-63
2022/01/15 00:34:13;;;;;;;76.90;15.10;;;;;;;7.19;79.65;101460.09;5091466;28;20055;-63
2022/01/15 00:36:39;;;;;;;72.75;14.13;;;;;;;7.18;80.16;101454.03;5091136;28;20043;-63
2022/01/15 00:39:06;;;;;;;77.40;14.43;;;;;;;7.18;79.86;101448.78;5091551;28;20048;-63
2022/01/15 00:41:32;;;;;;;81.38;14.75;;;;;;;7.17;79.85;101447.91;5091198;28;20492;-62
2022/01/15 00:43:59;;;;;;;111.75;14.65;;;;;;;7.17;79.84;101440.06;5089858;28;20078;-62
2022/01/15 00:46:26;;;;;;;90.65;15.05;;;;;;;7.17;79.42;101441.78;5090988;28;20579;-62
2022/01/15 00:48:53;;;;;;;94.93;14.50;;;;;;;7.16;79.56;101434.81;5091132;28;20048;-63
2022/01/15 00:51:19;;;;;;;139.43;16.55;;;;;;;7.15;79.27;101431.34;5090706;28;20055;-62
2022/01/15 00:53:46;;;;;;;167.57;17.42;;;;;;;7.13;79.34;101430.50;5091286;28;20456;-62
2022/01/15 00:56:12;;;;;;;90.75;15.00;;;;;;;7.10;79.46;101427.94;5091157;28;20117;-62
2022/01/15 00:58:39;;;;;;;170.00;16.98;;;;;;;7.09;79.38;101425.31;5050934;28;1112945;-62
2022/01/15 01:01:05;;;;;;;202.43;18.20;;;;;;;7.08;79.48;101421.88;5091660;28;20056;-63
2022/01/15 01:03:32;;;;;;;148.52;16.35;;;;;;;7.07;79.89;101422.75;5091823;28;20571;-63
2022/01/15 01:05:59;;;;;;;106.55;15.30;;;;;;;7.07;79.77;101424.50;5091808;28;20489;-63
2022/01/15 01:08:26;;;;;;;167.10;15.40;;;;;;;7.06;79.58;101423.63;5091922;28;20051;-63
2022/01/15 01:10:58;;;;;;;251.63;20.10;;;;;;;7.07;79.88;101421.88;5091970;28;20048;-62
2022/01/15 01:20:04;;;;;;;196.80;17.88;;;;;;;7.04;79.49;101407.94;5090703;28;20048;-62
2022/01/15 01:22:52;;;;;;;275.65;20.30;;;;;;;7.02;79.58;101404.50;5091187;28;20489;-62
2022/01/15 01:24:55;;;;;;;117.82;14.85;;;;;;;7.02;79.99;101394.03;5091259;28;20044;-63
2022/01/15 01:27:41;;;;;;;229.38;18.63;;;;;;;7.00;79.89;101390.53;5091242;28;20044;-64
2022/01/15 01:30:15;;;;;;;286.85;22.70;;;;;;;7.00;79.62;101394.94;5090808;28;20056;-63
2022/01/15 01:33:04;;;;;;;258.15;21.25;;;;;;;7.00;79.89;101395.78;5090197;28;20052;-63
2022/01/15 01:35:37;;;;;;;200.60;18.08;;;;;;;6.98;79.43;101389.72;5091438;28;20048;-63
2022/01/15 01:38:13;;;;;;;171.13;16.98;;;;;;;6.98;79.92;101391.47;5091212;28;20048;-63
2022/01/15 01:40:46;;;;;;;237.90;19.10;;;;;;;6.98;80.08;101394.94;5091054;28;20063;-63
2022/01/15 01:46:15;;;;;;;209.80;19.00;;;;;;;6.98;80.07;101380.97;5091165;28;20077;-62
2022/01/15 01:48:34;;;;;;;231.32;19.05;;;;;;;7.00;79.83;101384.47;5090966;28;20090;-62
2022/01/15 01:51:01;;;;;;;276.92;20.02;;;;;;;7.01;79.99;101383.56;5090819;28;20169;-62
2022/01/15 01:53:28;;;;;;;238.57;19.52;;;;;;;7.00;79.84;101380.06;5090928;28;20068;-64
2022/01/15 01:55:54;;;;;;;213.05;17.35;;;;;;;7.00;79.82;101372.22;5090770;28;20454;-63
2022/01/15 01:58:21;;;;;;;264.95;18.40;;;;;;;7.02;79.76;101369.56;5090484;28;20500;-63
2022/01/15 02:00:47;;;;;;;202.10;17.08;;;;;;;7.01;79.90;101360.00;5090491;28;20079;-62
2022/01/15 02:03:14;;;;;;;150.93;16.52;;;;;;;7.03;79.75;101366.09;5089532;28;20063;-64
2022/01/15 02:05:41;;;;;;;163.88;15.63;;;;;;;7.01;80.08;101371.34;5090731;28;20044;-62
2022/01/15 02:08:09;;;;;;;241.25;16.98;;;;;;;7.03;79.94;101372.16;5090575;28;20052;-63
2022/01/15 02:10:36;;;;;;;224.77;19.70;;;;;;;7.05;80.21;101366.91;5089199;28;20052;-66
2022/01/15 02:13:03;;;;;;;159.30;15.52;;;;;;;7.06;80.10;101354.69;5090621;28;20040;-64
2022/01/15 02:15:30;;;;;;;162.77;15.27;;;;;;;7.08;80.05;101356.41;5090873;28;20048;-62
2022/01/15 02:17:56;;;;;;;177.43;15.43;;;;;;;7.08;80.11;101353.78;5090551;28;20040;-64
2022/01/15 02:25:54;;;;;;;178.70;17.02;;;;;;;7.09;79.12;101350.28;5090276;28;20044;-62
2022/01/15 02:28:24;;;;;;;248.13;17.05;;;;;;;7.07;79.43;101344.22;5089052;28;20530;-63
2022/01/15 02:30:58;;;;;;;212.23;17.42;;;;;;;7.05;79.17;101340.72;5088656;28;20588;-63
2022/01/15 02:33:26;;;;;;;230.45;18.35;;;;;;;7.07;79.54;101338.97;5088957;28;20051;-65
2022/01/15 02:35:53;;;;;;;187.88;16.42;;;;;;;7.06;79.37;101337.22;5089175;28;20058;-63
2022/01/15 02:38:20;;;;;;;153.25;15.70;;;;;;;7.04;79.66;101341.63;5090486;28;20464;-63
2022/01/15 02:40:47;;;;;;;87.50;14.50;;;;;;;7.03;79.56;101342.53;5089898;28;20067;-63
2022/01/15 02:43:18;;;;;;;166.05;16.58;;;;;;;7.02;79.57;101335.53;5090099;28;20097;-63
2022/01/15 02:45:55;;;;;;;205.63;18.27;;;;;;;7.01;79.14;101326.84;5089105;28;20105;-64
2022/01/15 02:48:28;;;;;;;229.93;19.58;;;;;;;7.00;78.73;101316.38;5090335;28;20044;-63
2022/01/15 02:50:56;;;;;;;187.93;17.13;;;;;;;6.99;79.43;101318.13;5088949;28;20040;-61
2022/01/15 02:53:23;;;;;;;206.18;19.10;;;;;;;6.98;79.58;101321.66;5090023;28;20040;-62
2022/01/15 02:55:52;;;;;;;232.30;19.75;;;;;;;6.96;79.55;101315.59;5089881;28;20550;-63
2022/01/15 02:58:22;;;;;;;212.95;19.90;;;;;;;6.96;79.11;101304.25;5088459;28;20085;-62
2022/01/15 03:00:51;;;;;;;239.95;19.65;;;;;;;6.94;79.05;101306.00;5088537;28;20056;-62
2022/01/15 03:03:17;;;;;;;274.15;20.48;;;;;;;6.93;79.47;101309.50;5090089;28;20063;-64
2022/01/15 03:05:44;;;;;;;266.27;22.77;;;;;;;6.90;79.75;101303.47;5089926;28;20090;-63
2022/01/15 03:08:11;;;;;;;229.40;22.17;;;;;;;6.90;79.47;101306.06;5089710;28;20113;-62
2022/01/15 03:10:37;;;;;;;112.13;16.77;;;;;;;6.90;79.69;101299.97;5089534;28;20097;-63
2022/01/15 03:13:11;;;;;;;137.40;16.65;;;;;;;6.90;79.78;101306.06;5088528;28;20048;-62
2022/01/15 03:15:40;;;;;;;86.85;14.52;;;;;;;6.90;79.81;101303.47;5088976;28;20048;-65
2022/01/15 03:18:07;;;;;;;46.03;14.15;;;;;;;6.93;79.85;101304.28;5088686;28;20086;-62
2022/01/15 03:20:34;;;;;;;40.63;14.27;;;;;;;6.94;79.91;101300.75;5088353;28;20059;-63
2022/01/15 03:23:00;;;;;;;42.00;14.02;;;;;;;6.95;79.87;101305.13;5088815;28;20075;-63
2022/01/15 03:25:27;;;;;;;36.05;14.27;;;;;;;6.96;80.04;101299.88;5090018;28;20538;-63
2022/01/15 03:27:54;;;;;;;20.00;12.93;;;;;;;6.98;80.24;101307.69;5089752;28;20047;-63
2022/01/15 03:30:21;;;;;;;18.45;12.23;;;;;;;7.00;80.06;101300.69;5089805;28;20040;-62
2022/01/15 03:32:48;;;;;;;19.52;12.82;;;;;;;7.02;80.00;101289.28;5089713;28;20121;-62
2022/01/15 03:35:16;;;;;;;18.75;12.13;;;;;;;7.04;79.88;101289.25;5089741;28;20045;-63
2022/01/15 03:37:43;;;;;;;19.88;12.45;;;;;;;7.07;79.95;101290.97;5088430;28;20518;-62
2022/01/15 03:40:11;;;;;;;21.05;13.20;;;;;;;7.08;79.97;101290.94;5089334;28;20569;-62
2022/01/15 03:42:38;;;;;;;22.48;13.48;;;;;;;7.12;80.16;101294.34;5088397;28;20105;-62
2022/01/15 03:45:05;;;;;;;19.42;11.70;;;;;;;7.13;80.10;101291.72;5089656;28;20052;-63
2022/01/15 03:47:32;;;;;;;23.73;14.60;;;;;;;7.15;80.18;101295.16;5089563;28;20534;-62
2022/01/15 03:49:59;;;;;;;21.40;12.95;;;;;;;7.18;79.84;101291.66;5089513;28;20052;-63
2022/01/15 03:52:25;;;;;;;23.48;14.23;;;;;;;7.21;79.81;101285.47;5090818;28;20101;-63
2022/01/15 03:54:52;;;;;;;20.17;12.45;;;;;;;7.23;80.26;101289.81;5093412;28;20093;-62
2022/01/15 03:57:19;;;;;;;24.10;12.98;;;;;;;7.26;79.81;101284.47;5092347;28;20434;-64
2022/01/15 03:59:45;;;;;;;22.35;13.30;;;;;;;7.30;80.05;101287.94;5093179;28;20048;-64
2022/01/15 04:02:12;;;;;;;19.65;11.13;;;;;;;7.34;79.77;101286.09;5093245;28;20047;-62
2022/01/15 04:04:39;;;;;;;23.50;13.40;;;;;;;7.35;79.51;101291.31;5092928;28;20047;-65
2022/01/15 04:07:06;;;;;;;21.83;12.82;;;;;;;7.38;79.65;101295.63;5092958;28;20048;-62
2022/01/15 04:09:33;;;;;;;23.67;13.30;;;;;;;7.40;79.59;101278.16;5093010;28;20109;-64
2022/01/15 04:11:59;;;;;;;21.88;13.25;;;;;;;7.42;79.40;101277.22;5093006;28;20518;-62
2022/01/15 04:14:26;;;;;;;26.65;15.13;;;;;;;7.42;79.07;101271.09;5092966;28;20047;-63
2022/01/15 04:16:52;;;;;;;18.38;11.75;;;;;;;7.41;78.92;101264.16;5092983;28;20048;-62
2022/01/15 04:19:19;;;;;;;20.90;12.90;;;;;;;7.40;79.29;101270.28;5091625;28;20047;-63
2022/01/15 04:21:46;;;;;;;21.77;13.63;;;;;;;7.40;79.17;101272.91;5092622;28;20785;-62
2022/01/15 04:24:12;;;;;;;21.92;13.13;;;;;;;7.40;79.16;101270.28;5092901;28;20120;-62
2022/01/15 04:26:39;;;;;;;23.25;13.43;;;;;;;7.40;78.94;101276.38;5092686;28;20105;-63
2022/01/15 04:29:06;;;;;;;24.88;13.85;;;;;;;7.41;79.16;101274.63;5092716;28;20101;-63
2022/01/15 04:31:48;;;;;;;20.88;13.63;;;;;;;7.40;79.15;101273.75;5092590;28;20077;-62
2022/01/15 04:34:20;;;;;;;21.02;12.63;;;;;;;7.40;79.09;101273.75;5092664;28;20063;-62
2022/01/15 04:36:51;;;;;;;20.92;13.13;;;;;;;7.40;78.87;101273.75;5092551;28;20056;-62
2022/01/15 04:39:18;;;;;;;18.55;11.20;;;;;;;7.41;79.33;101270.22;5092298;28;20044;-62
2022/01/15 04:41:45;;;;;;;23.90;13.73;;;;;;;7.42;79.35;101266.75;5091323;28;20408;-63
2022/01/15 04:44:12;;;;;;;21.42;12.90;;;;;;;7.43;78.97;101278.94;5092793;28;20052;-63
2022/01/15 04:46:40;;;;;;;25.40;13.63;;;;;;;7.44;78.92;101271.94;5092213;28;20047;-63
2022/01/15 04:49:06;;;;;;;38.50;14.30;;;;;;;7.45;79.05;101264.94;5090913;28;20052;-66
2022/01/15 04:51:34;;;;;;;33.05;14.18;;;;;;;7.43;78.85;101263.22;5092008;28;20056;-62
2022/01/15 04:54:00;;;;;;;53.15;15.82;;;;;;;7.43;78.76;101262.34;5090872;28;20121;-62
2022/01/15 04:56:27;;;;;;;28.40;15.60;;;;;;;7.41;78.90;101265.00;5090907;28;20055;-62
2022/01/15 04:58:54;;;;;;;34.88;14.57;;;;;;;7.41;78.64;101258.91;5090635;28;20101;-64
2022/01/15 05:01:21;;;;;;;28.42;14.73;;;;;;;7.39;78.82;101258.06;5090290;28;20097;-62
2022/01/15 05:03:48;;;;;;;27.88;15.00;;;;;;;7.38;78.76;101258.97;5090849;28;20048;-62
2022/01/15 05:06:15;;;;;;;37.20;16.15;;;;;;;7.36;79.27;101251.13;5090642;28;20462;-63
2022/01/15 05:08:44;;;;;;;28.67;15.32;;;;;;;7.36;79.03;101250.28;5091828;28;20052;-62
2022/01/15 05:11:15;;;;;;;27.73;15.73;;;;;;;7.37;79.23;101252.00;5091574;28;20420;-62
2022/01/15 05:13:42;;;;;;;23.40;14.20;;;;;;;7.37;79.37;101252.00;5091715;28;20060;-62
2022/01/15 05:16:09;;;;;;;43.25;15.80;;;;;;;7.38;79.15;101251.09;5091745;28;20056;-63
2022/01/15 05:18:35;;;;;;;33.72;13.98;;;;;;;7.39;79.23;101245.84;5091544;28;20052;-63
2022/01/15 05:21:02;;;;;;;23.70;13.15;;;;;;;7.41;79.32;101241.41;5091308;28;20530;-63
2022/01/15 05:23:29;;;;;;;28.02;13.90;;;;;;;7.43;79.17;101249.25;5091518;28;20048;-63
2022/01/15 05:25:56;;;;;;;20.67;12.48;;;;;;;7.46;79.06;101245.69;5091549;28;20056;-62
2022/01/15 05:28:22;;;;;;;21.73;12.73;;;;;;;7.48;79.20;101247.41;5089999;28;20636;-62
2022/01/15 05:30:49;;;;;;;22.02;12.15;;;;;;;7.50;79.09;101247.38;5091331;28;20557;-62
2022/01/15 05:33:16;;;;;;;20.52;13.18;;;;;;;7.51;78.96;101243.88;5090454;28;20074;-62
2022/01/15 05:35:43;;;;;;;21.23;12.07;;;;;;;7.53;78.97;101242.94;5091547;28;20052;-62
2022/01/15 05:38:10;;;;;;;47.47;14.75;;;;;;;7.53;78.67;101237.72;5091320;28;20044;-62
2022/01/15 05:40:36;;;;;;;25.08;13.80;;;;;;;7.53;78.49;101239.47;5089765;28;20044;-63
2022/01/15 05:43:03;;;;;;;23.77;12.93;;;;;;;7.51;78.36;101233.41;5091092;28;20113;-64
2022/01/15 05:45:30;;;;;;;22.15;13.02;;;;;;;7.49;78.15;101240.41;5091254;28;20097;-62
2022/01/15 05:47:56;;;;;;;26.13;14.82;;;;;;;7.48;78.28;101233.44;5090919;28;20105;-62
2022/01/15 05:50:23;;;;;;;26.75;14.63;;;;;;;7.45;78.35;101233.50;5090957;28;20089;-64
2022/01/15 05:52:49;;;;;;;19.10;12.05;;;;;;;7.40;78.52;101231.84;5090993;28;20052;-62
2022/01/15 05:55:16;;;;;;;23.55;12.90;;;;;;;7.39;78.53;101226.63;5090829;28;20051;-63
2022/01/15 05:57:43;;;;;;;22.15;13.15;;;;;;;7.37;78.76;101229.28;5091200;28;20085;-62
2022/01/15 06:00:10;;;;;;;19.17;12.43;;;;;;;7.36;78.68;101232.78;5091140;28;20056;-63
2022/01/15 06:02:36;;;;;;;19.45;12.20;;;;;;;7.33;78.74;101222.38;5090948;28;20052;-62
2022/01/15 06:05:03;;;;;;;25.42;14.20;;;;;;;7.32;78.84;101233.75;5090972;28;20052;-63
2022/01/15 06:07:30;;;;;;;27.15;15.75;;;;;;;7.30;78.83;101225.91;5090672;28;20105;-62
2022/01/15 06:09:56;;;;;;;25.50;15.18;;;;;;;7.29;78.86;101220.72;5090227;28;20492;-63
2022/01/15 06:12:29;;;;;;;28.30;15.63;;;;;;;7.28;78.75;101221.59;5090829;28;20450;-62
2022/01/15 06:14:56;;;;;;;35.47;17.15;;;;;;;7.27;78.66;101222.50;5089103;28;20720;-63
2022/01/15 06:17:23;;;;;;;35.33;18.25;;;;;;;7.26;78.97;101213.75;5090483;28;20056;-63
2022/01/15 06:19:50;;;;;;;80.78;18.63;;;;;;;7.26;78.94;101211.16;5090458;28;20496;-64
2022/01/15 06:22:17;;;;;;;51.67;17.30;;;;;;;7.28;79.11;101226.84;5090336;28;20124;-63
2022/01/15 06:24:43;;;;;;;45.78;16.77;;;;;;;7.28;78.83;101221.59;5090508;28;20485;-63
2022/01/15 06:27:11;;;;;;;37.97;14.65;;;;;;;7.27;78.74;101219.88;5089772;28;20048;-64
2022/01/15 06:29:39;;;;;;;32.72;15.57;;;;;;;7.27;79.02;101223.38;5090240;28;20583;-65
2022/01/15 06:32:06;;;;;;;61.75;17.27;;;;;;;7.27;79.11;101220.75;5090260;28;20550;-62
2022/01/15 06:34:32;;;;;;;54.88;16.65;;;;;;;7.28;79.14;101225.09;5089229;28;20052;-62
2022/01/15 06:36:59;;;;;;;95.78;18.00;;;;;;;7.30;79.19;101223.28;5089007;28;20109;-62
2022/01/15 06:39:26;;;;;;;152.02;17.95;;;;;;;7.32;78.82;101223.25;5089102;28;20492;-61
2022/01/15 06:41:52;;;;;;;83.57;16.20;;;;;;;7.33;78.80;101226.75;5089048;28;20056;-63
2022/01/15 06:44:19;;;;;;;87.70;17.50;;;;;;;7.33;78.61;101234.63;5090075;28;20492;-63
2022/01/15 06:46:45;;;;;;;63.60;16.02;;;;;;;7.32;79.08;101218.03;5090028;28;20480;-61
2022/01/15 06:49:12;;;;;;;181.05;19.38;;;;;;;7.32;78.80;101211.94;5089755;28;20056;-62
2022/01/15 06:51:39;;;;;;;109.95;18.05;;;;;;;7.32;78.68;101215.41;5088572;28;20572;-62
2022/01/15 06:54:05;;;;;;;47.15;15.40;;;;;;;7.31;78.57;101208.44;5090512;28;20048;-62
2022/01/15 06:56:32;;;;;;;72.00;17.52;;;;;;;7.28;78.23;101204.13;5089965;28;20048;-62
2022/01/15 06:58:59;;;;;;;56.60;18.00;;;;;;;7.28;78.52;101208.50;5088804;28;20044;-70
2022/01/15 07:01:25;;;;;;;177.73;21.15;;;;;;;7.24;78.11;101201.59;5088515;28;20048;-62
2022/01/15 07:03:52;;;;;;;86.15;17.08;;;;;;;7.22;78.43;101203.41;5089688;28;20052;-61
2022/01/15 07:06:19;;;;;;;51.65;15.13;;;;;;;7.17;78.71;101209.59;5089893;28;20098;-62
2022/01/15 07:08:45;;;;;;;112.53;16.90;;;;;;;7.17;78.63;101203.47;5089806;28;20090;-63
2022/01/15 07:11:13;;;;;;;54.35;15.90;;;;;;;7.14;78.43;101207.00;5089785;28;20513;-64
2022/01/15 07:13:39;;;;;;;57.33;16.00;;;;;;;7.13;78.47;101207.03;5088615;28;20492;-63
2022/01/15 07:16:06;;;;;;;55.13;16.02;;;;;;;7.11;78.52;101207.06;5089711;28;20569;-62
2022/01/15 07:18:34;;;;;;;27.05;14.65;;;;;;;7.08;78.75;101199.28;5089845;28;20137;-62
2022/01/15 07:21:00;;;;;;;29.27;15.23;;;;;;;7.08;79.10;101199.28;5089502;28;20056;-63
2022/01/15 07:23:27;;;;;;;26.02;13.18;;;;;;;7.08;78.73;101198.41;5087196;28;20493;-64
2022/01/15 07:25:53;;;;;;;24.60;13.70;;;;;;;7.08;79.29;101201.03;5089948;28;20048;-63
2022/01/15 07:28:20;;;;;;;25.15;13.68;;;;;;;7.08;79.14;101201.91;5092415;28;20040;-62
2022/01/15 07:30:47;;;;;;;29.88;15.65;;;;;;;7.09;79.17;101200.13;5093591;28;20443;-62
2022/01/15 07:33:13;;;;;;;30.38;15.65;;;;;;;7.08;78.71;101199.28;5093869;28;20124;-63
2022/01/15 07:35:43;;;;;;;29.10;15.77;;;;;;;7.07;78.91;101201.94;5092651;28;20470;-63
2022/01/15 07:38:13;;;;;;;27.10;14.23;;;;;;;7.05;78.56;101201.97;5093331;28;20052;-63
2022/01/15 07:40:41;;;;;;;27.15;14.80;;;;;;;7.06;79.13;101200.22;5092402;28;20494;-63
2022/01/15 07:43:07;;;;;;;27.95;16.17;;;;;;;7.07;78.67;101199.31;5090290;28;20131;-63
2022/01/15 07:45:34;;;;;;;30.73;15.50;;;;;;;7.04;78.70;101200.25;5092292;28;20504;-63
2022/01/15 07:48:01;;;;;;;28.50;14.88;;;;;;;7.03;78.62;101195.91;5091303;28;20445;-62
2022/01/15 07:50:27;;;;;;;30.88;16.70;;;;;;;7.02;78.74;101204.63;5090972;28;20129;-62
2022/01/15 07:52:55;;;;;;;26.13;14.43;;;;;;;7.00;78.95;101203.81;5093358;28;20097;-64
2022/01/15 07:55:23;;;;;;;30.80;15.25;;;;;;;7.01;79.39;101206.41;5093417;28;20052;-64
2022/01/15 07:58:01;;;;;;;31.27;15.20;;;;;;;7.02;79.21;101205.50;5093524;28;20443;-63
2022/01/15 08:00:28;;;;;;;27.55;14.20;;;;;;;7.03;79.29;101207.22;5091561;28;20044;-62
2022/01/15 08:02:54;;;;;;;28.88;15.15;;;;;;;7.04;79.36;101210.72;5092157;28;20059;-64
2022/01/15 08:05:21;;;;;;;31.95;16.90;;;;;;;7.06;79.11;101213.31;5092495;28;20052;-63
2022/01/15 08:07:48;;;;;;;28.13;14.27;;;;;;;7.07;79.13;101208.03;5092781;28;20048;-62
2022/01/15 08:10:15;;;;;;;33.00;15.15;;;;;;;7.07;79.56;101205.44;5092717;28;20480;-63
2022/01/15 08:12:47;;;;;;;31.27;15.40;;;;;;;7.07;79.40;101202.81;5093016;28;20044;-62
2022/01/15 08:15:15;;;;;;;28.98;16.58;;;;;;;7.11;79.08;101209.69;5093135;28;20055;-63
2022/01/15 08:17:42;;;;;;;32.00;16.00;;;;;;;7.13;79.37;101207.91;5091335;28;20408;-62
2022/01/15 08:20:09;;;;;;;33.65;15.23;;;;;;;7.14;79.20;101207.00;5092731;28;20044;-63
2022/01/15 08:22:36;;;;;;;30.98;16.83;;;;;;;7.15;79.26;101211.34;5092969;28;20048;-62
2022/01/15 08:25:03;;;;;;;34.70;16.90;;;;;;;7.17;79.25;101203.47;5092668;28;20040;-63
2022/01/15 08:27:29;;;;;;;29.45;15.50;;;;;;;7.19;79.59;101203.44;5092690;28;20060;-62
2022/01/15 08:29:56;;;;;;;37.15;17.55;;;;;;;7.21;79.92;101204.31;5092691;28;20101;-62
2022/01/15 08:32:22;;;;;;;35.58;17.10;;;;;;;7.23;79.81;101205.13;5091358;28;20048;-62
2022/01/15 08:34:49;;;;;;;30.55;16.15;;;;;;;7.26;79.78;101199.81;5092707;28;20101;-63
2022/01/15 08:37:16;;;;;;;29.20;14.80;;;;;;;7.29;79.33;101191.91;5092054;28;20047;-62
2022/01/15 08:39:43;;;;;;;29.60;14.32;;;;;;;7.34;79.90;101200.53;5090211;28;20087;-64
2022/01/15 08:42:09;;;;;;;29.27;14.70;;;;;;;7.38;79.79;101193.47;5092344;28;20466;-63
2022/01/15 08:44:41;;;;;;;26.98;15.38;;;;;;;7.41;79.85;101182.94;5091113;28;20462;-63
2022/01/15 08:47:08;;;;;;;27.65;14.60;;;;;;;7.46;79.84;101191.56;5092656;28;20048;-62
2022/01/15 08:49:36;;;;;;;26.70;14.77;;;;;;;7.52;79.55;101199.28;5092186;28;20059;-63
2022/01/15 08:52:04;;;;;;;26.45;15.00;;;;;;;7.55;79.55;101190.47;5092209;28;20044;-62
2022/01/15 08:54:31;;;;;;;25.60;14.63;;;;;;;7.59;79.37;101189.53;5090591;28;20048;-64
2022/01/15 08:56:57;;;;;;;24.02;14.50;;;;;;;7.62;79.16;101180.75;5092617;28;20097;-63
2022/01/15 08:59:26;;;;;;;30.17;15.98;;;;;;;7.63;79.14;101188.56;5090251;28;20049;-63
2022/01/15 09:01:55;;;;;;;29.25;14.77;;;;;;;7.65;78.97;101193.78;5091731;28;20040;-63
2022/01/15 09:04:22;;;;;;;26.48;14.95;;;;;;;7.66;79.21;101190.25;5092118;28;20048;-63
2022/01/15 09:06:49;;;;;;;25.85;15.48;;;;;;;7.68;79.27;101185.84;5090695;28;20052;-64
2022/01/15 09:09:16;;;;;;;28.35;15.20;;;;;;;7.69;78.85;101185.84;5091711;28;20055;-63
2022/01/15 09:11:44;;;;;;;26.35;15.65;;;;;;;7.73;78.96;101180.53;5092264;28;20102;-63
2022/01/15 09:14:11;;;;;;;29.13;15.68;;;;;;;7.75;79.17;101173.47;5092256;28;20054;-62
2022/01/15 09:16:38;;;;;;;28.33;15.68;;;;;;;7.77;79.08;101177.78;5091861;28;20097;-63
2022/01/15 09:19:06;;;;;;;28.52;15.18;;;;;;;7.81;79.14;101181.19;5091611;28;20079;-66
2022/01/15 09:21:33;;;;;;;29.45;15.30;;;;;;;7.81;79.09;101171.59;5090310;28;20077;-61
2022/01/15 09:24:00;;;;;;;27.23;15.65;;;;;;;7.83;78.99;101163.69;5091867;28;20056;-62
2022/01/15 09:32:16;;;;;;;28.08;14.68;;;;;;;7.91;78.58;101164.38;5048563;28;20095;-63
2022/01/15 09:34:43;;;;;;;27.45;15.43;;;;;;;7.92;78.69;101168.72;5082813;28;20381;-63
2022/01/15 09:37:09;;;;;;;26.08;14.88;;;;;;;7.94;78.85;101164.31;5091682;28;20489;-63
2022/01/15 09:39:36;;;;;;;24.92;13.75;;;;;;;7.95;79.26;101154.66;5091099;28;20549;-64
2022/01/15 09:42:03;;;;;;;24.88;13.98;;;;;;;7.97;79.07;101162.50;5091293;28;20044;-63
2022/01/15 09:44:32;;;;;;;26.63;14.98;;;;;;;8.00;78.75;101165.06;5091170;28;20435;-63
2022/01/15 09:47:00;;;;;;;26.40;14.68;;;;;;;8.02;78.92;101161.50;5090091;28;20048;-63
2022/01/15 09:49:28;;;;;;;24.85;14.43;;;;;;;8.04;78.89;101161.47;5089093;28;20040;-63
2022/01/15 09:51:55;;;;;;;27.58;14.30;;;;;;;8.07;78.88;101154.38;5091029;28;20450;-62
2022/01/15 09:54:21;;;;;;;21.90;13.15;;;;;;;8.10;78.71;101153.44;5090994;28;20052;-63
2022/01/15 09:56:49;;;;;;;19.70;12.68;;;;;;;8.13;78.70;101157.75;5090856;28;20061;-62
2022/01/15 09:59:16;;;;;;;22.90;13.25;;;;;;;8.15;78.98;101151.56;5090767;28;20059;-62
2022/01/15 10:01:43;;;;;;;22.88;13.15;;;;;;;8.19;78.99;101147.97;5090761;28;20134;-63
2022/01/15 10:04:10;;;;;;;23.20;13.23;;;;;;;8.20;78.81;101147.09;5090849;28;20056;-62
2022/01/15 10:06:57;;;;;;;19.30;10.77;;;;;;;8.24;79.17;101136.50;5090703;28;20048;-63
2022/01/15 10:09:23;;;;;;;18.00;11.32;;;;;;;8.27;78.98;101139.94;5090175;28;20048;-63
2022/01/15 10:11:53;;;;;;;22.25;11.45;;;;;;;8.30;78.62;101139.00;5089173;28;20051;-62
2022/01/15 10:14:30;;;;;;;20.80;11.88;;;;;;;8.30;78.00;101144.25;5090819;28;20110;-62
2022/01/15 10:16:58;;;;;;;16.38;9.98;;;;;;;8.33;78.33;101145.00;5090841;28;20503;-62
2022/01/15 10:19:32;;;;;;;15.98;9.43;;;;;;;8.32;77.72;101137.19;5090424;28;20063;-64
2022/01/15 10:22:08;;;;;;;16.05;9.43;;;;;;;8.33;77.62;101138.88;5089306;28;20054;-63
2022/01/15 10:24:36;;;;;;;16.90;9.25;;;;;;;8.38;78.55;101137.03;5090582;28;20070;-61
2022/01/15 10:27:20;;;;;;;15.40;8.90;;;;;;;8.34;77.40;101133.59;5089289;28;20393;-63
2022/01/15 10:29:55;;;;;;;11.93;7.95;;;;;;;8.40;78.26;101137.84;5089050;28;20051;-62
2022/01/15 10:32:24;;;;;;;14.55;8.45;;;;;;;8.42;78.50;101138.69;5090240;28;20055;-63
2022/01/15 10:34:51;;;;;;;11.13;7.47;;;;;;;8.45;78.34;101125.47;5089227;28;20438;-62
2022/01/15 10:37:21;;;;;;;10.55;7.00;;;;;;;8.45;78.07;101128.09;5090281;28;20052;-63
2022/01/15 10:40:06;;;;;;;11.55;7.03;;;;;;;8.43;77.23;101124.66;5090159;28;20056;-63
2022/01/15 10:42:34;;;;;;;11.82;7.13;;;;;;;8.48;78.17;101127.13;5088991;28;20073;-63
2022/01/15 10:45:12;;;;;;;12.10;7.40;;;;;;;8.45;77.16;101128.09;5090117;28;20437;-62
2022/01/15 10:47:44;;;;;;;12.70;7.43;;;;;;;8.50;78.26;101116.59;5090248;28;20102;-63
2022/01/15 10:50:22;;;;;;;11.13;7.10;;;;;;;8.47;77.28;101110.56;5088812;28;20419;-62
2022/01/15 10:52:50;;;;;;;9.40;6.40;;;;;;;8.53;77.86;101116.56;5088903;28;20052;-62
2022/01/15 10:55:23;;;;;;;9.05;6.70;;;;;;;8.52;78.19;101110.41;5090131;28;20484;-62
2022/01/15 10:58:11;;;;;;;9.73;7.15;;;;;;;8.49;76.58;101102.66;5088767;28;20052;-62
2022/01/15 11:00:42;;;;;;;8.85;6.43;;;;;;;8.53;77.39;101103.44;5089977;28;20633;-63
2022/01/15 11:03:16;;;;;;;9.35;6.97;;;;;;;8.53;77.74;101106.94;5093163;28;20048;-62
2022/01/15 11:05:44;;;;;;;11.77;6.75;;;;;;;8.53;77.27;101103.44;5094338;28;20083;-62
2022/01/15 11:08:22;;;;;;;10.85;7.20;;;;;;;8.47;76.13;101100.06;5094219;28;20045;-62
2022/01/15 11:11:01;;;;;;;11.63;7.25;;;;;;;8.45;76.57;101091.34;5093972;28;20056;-63
2022/01/15 11:13:34;;;;;;;10.60;7.15;;;;;;;8.45;76.93;101093.97;5094102;28;20052;-63
2022/01/15 11:16:08;;;;;;;10.25;7.13;;;;;;;8.43;77.09;101093.16;5094005;28;20439;-62
2022/01/15 11:18:37;;;;;;;10.43;7.50;;;;;;;8.43;77.59;101093.16;5094131;28;20458;-63
2022/01/15 11:21:06;;;;;;;15.32;8.55;;;;;;;8.42;77.30;101085.31;5093815;28;20048;-63
2022/01/15 11:23:35;;;;;;;15.35;8.68;;;;;;;8.42;77.90;101082.69;5092847;28;20450;-62
2022/01/15 11:26:07;;;;;;;12.40;7.75;;;;;;;8.40;77.05;101081.88;5092381;28;20097;-63
2022/01/15 11:28:34;;;;;;;15.73;8.40;;;;;;;8.42;77.92;101088.81;5093672;28;20052;-62
2022/01/15 11:31:04;;;;;;;12.85;8.02;;;;;;;8.40;77.41;101088.00;5093762;28;20055;-62
2022/01/15 11:33:33;;;;;;;14.07;8.45;;;;;;;8.41;77.61;101079.22;5092591;28;20097;-62
2022/01/15 11:36:00;;;;;;;14.50;9.02;;;;;;;8.42;77.71;101077.47;5092517;28;20048;-62
2022/01/15 11:38:50;;;;;;;13.80;8.40;;;;;;;8.37;76.46;101082.81;5092392;28;20048;-63
2022/01/15 11:41:43;;;;;;;17.00;10.05;;;;;;;8.38;76.32;101084.56;5093278;28;20044;-62
2022/01/15 11:44:18;;;;;;;20.17;9.88;;;;;;;8.43;77.46;101074.81;5082430;28;20048;-62